Time;durP1;ratioP1;P1;durP2;ratioP2;P2;SDS_P1;SDS_P2;PMS_P1;PMS_P2;Temp;Humidity;BMP_temperature;BMP_pressure;BME280_temperature;BME280_humidity;BME280_pressure;Samples;Min_cycle;Max_cycle;Signal;HPM_P1;HPM_P2
2021/03/10 00:01:33;;;;;;;30.53;20.53;;;5.40;99.90;;;;;;5033931;28;20325;-76
2021/03/10 00:03:59;;;;;;;31.10;21.77;;;5.50;99.90;;;;;;5030306;28;20244;-76
2021/03/10 00:06:24;;;;;;;25.07;19.77;;;5.60;99.90;;;;;;4999084;28;20257;-76
2021/03/10 00:08:50;;;;;;;28.37;21.47;;;5.50;99.90;;;;;;5003079;28;20221;-77
2021/03/10 00:11:16;;;;;;;28.50;21.03;;;5.50;99.90;;;;;;5035283;28;20815;-76
2021/03/10 00:13:41;;;;;;;31.40;21.67;;;5.50;99.90;;;;;;5031999;28;20211;-77
2021/03/10 00:16:07;;;;;;;33.93;21.97;;;5.40;99.90;;;;;;5035803;28;20210;-76
2021/03/10 00:18:33;;;;;;;32.13;22.10;;;5.30;99.90;;;;;;5031266;28;20207;-76
2021/03/10 00:20:59;;;;;;;34.93;21.63;;;5.30;99.90;;;;;;5012016;28;20426;-76
2021/03/10 00:23:24;;;;;;;33.90;25.33;;;5.20;99.90;;;;;;4998190;28;20324;-76
2021/03/10 00:25:50;;;;;;;31.40;22.57;;;5.10;99.90;;;;;;5009281;28;20225;-76
2021/03/10 00:28:15;;;;;;;29.43;21.70;;;5.00;99.90;;;;;;5032237;28;20214;-76
2021/03/10 00:30:41;;;;;;;31.03;22.70;;;4.90;99.90;;;;;;5004041;28;20226;-76
2021/03/10 00:33:08;;;;;;;29.77;24.13;;;5.10;99.90;;;;;;5030495;28;20756;-76
2021/03/10 00:35:33;;;;;;;31.03;23.43;;;5.00;99.90;;;;;;5047005;28;20214;-76
2021/03/10 00:38:00;;;;;;;40.57;24.10;;;4.90;99.90;;;;;;5039512;28;20769;-76
2021/03/10 00:40:27;;;;;;;42.13;25.90;;;4.80;99.90;;;;;;5031931;28;20217;-76
2021/03/10 00:42:52;;;;;;;31.10;24.30;;;4.80;99.90;;;;;;5031495;28;20397;-76
2021/03/10 00:45:18;;;;;;;33.37;22.67;;;4.80;99.90;;;;;;5032369;28;21079;-76
2021/03/10 00:47:44;;;;;;;28.77;21.80;;;4.80;99.90;;;;;;5035995;28;20677;-76
2021/03/10 00:50:10;;;;;;;44.50;24.60;;;4.60;99.90;;;;;;5019456;28;20449;-76
2021/03/10 00:52:36;;;;;;;36.10;24.70;;;4.60;99.90;;;;;;5033439;28;20210;-76
2021/03/10 00:55:02;;;;;;;32.20;22.13;;;4.50;99.90;;;;;;5033117;28;20406;-76
2021/03/10 00:57:28;;;;;;;31.20;22.93;;;4.30;99.90;;;;;;5028579;28;20293;-76
2021/03/10 00:59:53;;;;;;;35.60;23.07;;;4.30;99.90;;;;;;5014061;28;20450;-76
2021/03/10 01:02:19;;;;;;;28.00;21.27;;;4.20;99.90;;;;;;5033980;28;20665;-76
2021/03/10 01:04:45;;;;;;;34.93;22.10;;;4.30;99.90;;;;;;5030090;28;20230;-76
2021/03/10 01:07:10;;;;;;;33.20;24.60;;;4.20;99.90;;;;;;5009440;28;21157;-76
2021/03/10 01:09:36;;;;;;;28.37;23.63;;;4.30;99.90;;;;;;5000294;28;20249;-77
2021/03/10 01:12:02;;;;;;;33.90;24.10;;;4.30;99.90;;;;;;5017494;28;20207;-76
2021/03/10 01:14:27;;;;;;;33.20;21.93;;;4.20;99.90;;;;;;5034558;28;20312;-76
2021/03/10 01:16:53;;;;;;;37.03;23.93;;;4.10;99.90;;;;;;5032300;28;20748;-75
2021/03/10 01:19:19;;;;;;;29.93;20.80;;;4.10;99.90;;;;;;5017311;28;21021;-76
2021/03/10 01:21:44;;;;;;;40.87;25.83;;;4.10;99.90;;;;;;5032319;28;20202;-76
2021/03/10 01:24:10;;;;;;;34.20;24.73;;;4.20;99.90;;;;;;5032162;28;20210;-76
2021/03/10 01:26:36;;;;;;;35.30;24.23;;;4.30;99.90;;;;;;5019467;28;20202;-76
2021/03/10 01:29:02;;;;;;;35.07;25.70;;;4.40;99.90;;;;;;5034399;28;20416;-76
2021/03/10 01:31:28;;;;;;;42.43;26.03;;;4.50;99.90;;;;;;5035844;28;21078;-76
2021/03/10 01:33:54;;;;;;;39.03;24.53;;;4.50;99.90;;;;;;5035094;28;20462;-76
2021/03/10 01:36:19;;;;;;;43.53;25.60;;;4.60;99.90;;;;;;5051346;28;20689;-76
2021/03/10 01:38:45;;;;;;;42.87;27.77;;;4.70;99.90;;;;;;5051994;28;20210;-76
2021/03/10 01:41:14;;;;;;;40.10;26.90;;;4.70;99.90;;;;;;5039340;28;20344;-76
2021/03/10 01:43:40;;;;;;;53.37;30.23;;;4.60;99.90;;;;;;5033108;28;20225;-76
2021/03/10 01:46:06;;;;;;;56.53;31.93;;;4.60;99.90;;;;;;5036075;28;20398;-75
2021/03/10 01:48:32;;;;;;;55.47;30.67;;;4.50;99.90;;;;;;5035618;28;20764;-75
2021/03/10 01:51:02;;;;;;;54.73;33.33;;;4.60;99.90;;;;;;5034264;28;20443;-76
2021/03/10 01:53:28;;;;;;;56.17;31.63;;;4.50;99.90;;;;;;5034814;28;20220;-76
2021/03/10 01:55:56;;;;;;;53.13;32.13;;;4.60;99.90;;;;;;5034030;28;20466;-76
2021/03/10 01:58:22;;;;;;;55.07;31.63;;;4.60;99.90;;;;;;5046303;28;20202;-76
2021/03/10 02:00:48;;;;;;;55.27;32.07;;;4.60;99.90;;;;;;5034341;28;20464;-76
2021/03/10 02:03:14;;;;;;;60.73;33.27;;;4.60;99.90;;;;;;5021661;28;20648;-76
2021/03/10 02:05:40;;;;;;;50.27;29.73;;;4.50;99.90;;;;;;5020846;28;20417;-76
2021/03/10 02:08:40;;;;;;;53.33;29.60;;;4.50;99.90;;;;;;5037565;28;20211;-76
2021/03/10 02:11:24;;;;;;;50.07;28.10;;;4.60;99.90;;;;;;5037778;28;20414;-76
2021/03/10 02:14:05;;;;;;;47.50;31.57;;;4.80;99.90;;;;;;5039484;28;20566;-76
2021/03/10 02:16:47;;;;;;;49.10;29.07;;;4.70;99.90;;;;;;5038503;28;20432;-76
2021/03/10 02:19:37;;;;;;;56.20;30.43;;;4.70;99.90;;;;;;5032740;28;20521;-76
2021/03/10 02:22:41;;;;;;;46.27;27.00;;;4.70;99.90;;;;;;5041819;28;20412;-76
2021/03/10 02:25:16;;;;;;;44.13;27.60;;;4.60;99.90;;;;;;5037567;28;20379;-76
2021/03/10 02:27:48;;;;;;;46.93;29.53;;;4.60;99.90;;;;;;5036149;28;20385;-76
2021/03/10 02:30:38;;;;;;;47.37;31.47;;;4.60;99.90;;;;;;5035614;28;20406;-76
2021/03/10 02:33:06;;;;;;;43.53;28.10;;;4.70;99.90;;;;;;5051339;28;20401;-76
2021/03/10 02:35:32;;;;;;;53.97;29.20;;;4.80;99.90;;;;;;5052136;28;20874;-76
2021/03/10 02:38:06;;;;;;;50.23;29.67;;;4.80;99.90;;;;;;5037716;28;20441;-76
2021/03/10 02:40:33;;;;;;;39.43;27.03;;;4.70;99.90;;;;;;5050137;28;20467;-76
2021/03/10 02:42:59;;;;;;;48.07;28.47;;;4.70;99.90;;;;;;5037350;28;21084;-76
2021/03/10 02:45:27;;;;;;;38.13;26.13;;;4.60;99.90;;;;;;5037518;28;20426;-76
2021/03/10 02:47:55;;;;;;;40.93;27.33;;;4.60;99.90;;;;;;5038608;28;20457;-76
2021/03/10 02:50:22;;;;;;;35.50;26.13;;;4.70;99.90;;;;;;5021896;28;20410;-76
2021/03/10 02:52:49;;;;;;;42.27;25.80;;;4.70;99.90;;;;;;5037876;28;21211;-75
2021/03/10 02:55:15;;;;;;;34.03;25.20;;;4.70;99.90;;;;;;5037916;28;20473;-76
2021/03/10 02:57:41;;;;;;;34.77;24.13;;;4.60;99.90;;;;;;5022648;28;20426;-76
2021/03/10 03:00:10;;;;;;;39.40;24.83;;;4.70;99.90;;;;;;5020485;28;20398;-76
2021/03/10 03:02:38;;;;;;;41.07;26.33;;;4.70;99.90;;;;;;5037316;28;20894;-76
2021/03/10 03:05:06;;;;;;;35.37;24.03;;;4.60;99.90;;;;;;5053840;28;20895;-76
2021/03/10 03:07:31;;;;;;;41.77;27.13;;;4.60;99.90;;;;;;5020961;28;20387;-76
2021/03/10 03:10:00;;;;;;;36.43;25.57;;;4.60;99.90;;;;;;5038215;28;20514;-76
2021/03/10 03:12:27;;;;;;;40.10;26.53;;;4.60;99.90;;;;;;5019948;28;20469;-76
2021/03/10 03:14:53;;;;;;;41.10;27.60;;;4.70;99.90;;;;;;5025207;28;20996;-76
2021/03/10 03:17:20;;;;;;;40.97;26.23;;;4.70;99.90;;;;;;5033416;28;20403;-76
2021/03/10 03:19:45;;;;;;;44.73;26.70;;;4.60;99.90;;;;;;5038330;28;20466;-76
2021/03/10 03:22:13;;;;;;;36.17;25.77;;;4.50;99.90;;;;;;5022999;28;20441;-76
2021/03/10 03:24:39;;;;;;;44.10;25.67;;;4.50;99.90;;;;;;5037828;28;20409;-77
2021/03/10 03:27:06;;;;;;;37.20;24.57;;;4.30;99.90;;;;;;5024703;28;20493;-76
2021/03/10 03:29:32;;;;;;;45.13;26.83;;;4.40;99.90;;;;;;5036125;28;20472;-76
2021/03/10 03:31:59;;;;;;;53.13;26.80;;;4.40;99.90;;;;;;5035282;28;20501;-76
2021/03/10 03:34:25;;;;;;;40.77;26.73;;;4.40;99.90;;;;;;5039037;28;20420;-76
2021/03/10 03:36:52;;;;;;;35.97;24.67;;;4.40;99.90;;;;;;5035773;28;20412;-76
2021/03/10 03:39:19;;;;;;;39.43;26.33;;;4.40;99.90;;;;;;5049084;28;20813;-76
2021/03/10 03:41:47;;;;;;;35.57;26.13;;;4.40;99.90;;;;;;5037337;28;20515;-76
2021/03/10 03:44:13;;;;;;;46.87;27.83;;;4.30;99.90;;;;;;5036745;28;20408;-76
2021/03/10 03:46:39;;;;;;;40.10;26.30;;;4.30;99.90;;;;;;5036515;28;20830;-76
2021/03/10 03:49:05;;;;;;;35.43;25.63;;;4.10;99.90;;;;;;5022603;28;20409;-76
2021/03/10 03:51:32;;;;;;;38.20;25.37;;;4.10;99.90;;;;;;5034964;28;20577;-76
2021/03/10 03:54:05;;;;;;;41.80;28.20;;;4.00;99.90;;;;;;5020393;28;20498;-76
2021/03/10 03:56:31;;;;;;;44.90;27.10;;;3.90;99.90;;;;;;5052745;28;20401;-76
2021/03/10 03:58:57;;;;;;;41.43;26.23;;;3.70;99.90;;;;;;5018077;28;20405;-77
2021/03/10 04:01:24;;;;;;;39.43;27.33;;;3.80;99.90;;;;;;5041473;28;20806;-77
2021/03/10 04:03:50;;;;;;;36.20;26.13;;;3.70;99.90;;;;;;5036230;28;20891;-77
2021/03/10 04:06:17;;;;;;;40.47;25.77;;;3.50;99.90;;;;;;5022629;28;20406;-77
2021/03/10 04:08:45;;;;;;;37.07;23.53;;;3.40;99.90;;;;;;5037287;28;20451;-77
2021/03/10 04:11:15;;;;;;;38.00;26.63;;;3.30;99.90;;;;;;5027969;28;20522;-77
2021/03/10 04:13:40;;;;;;;40.07;27.30;;;3.30;99.90;;;;;;5017746;28;20401;-77
2021/03/10 04:16:07;;;;;;;38.47;26.30;;;3.40;99.90;;;;;;5032618;28;20925;-77
2021/03/10 04:18:35;;;;;;;41.67;30.57;;;3.30;99.90;;;;;;5005163;28;20214;-77
2021/03/10 04:21:01;;;;;;;42.37;28.03;;;3.20;99.90;;;;;;5022619;28;20410;-77
2021/03/10 04:23:26;;;;;;;36.10;26.47;;;3.10;99.90;;;;;;5011330;28;20467;-77
2021/03/10 04:25:52;;;;;;;41.80;27.70;;;3.10;99.90;;;;;;5007601;28;22441;-77
2021/03/10 04:28:18;;;;;;;43.43;28.00;;;3.20;99.90;;;;;;5036116;28;20641;-77
2021/03/10 04:30:44;;;;;;;41.83;26.90;;;3.30;99.90;;;;;;5018518;28;20428;-77
2021/03/10 04:33:09;;;;;;;53.00;30.03;;;3.40;99.90;;;;;;5017911;28;20458;-77
2021/03/10 04:35:35;;;;;;;37.10;26.57;;;3.50;99.90;;;;;;5035770;28;20210;-77
2021/03/10 04:38:01;;;;;;;46.63;26.53;;;3.60;99.90;;;;;;5021705;28;20992;-77
2021/03/10 04:40:27;;;;;;;38.50;27.83;;;3.60;99.90;;;;;;5005234;28;20210;-77
2021/03/10 04:42:53;;;;;;;42.20;28.77;;;3.50;99.90;;;;;;5033643;28;20467;-77
2021/03/10 04:45:18;;;;;;;40.00;26.47;;;3.60;99.90;;;;;;5023133;28;21022;-77
2021/03/10 04:47:45;;;;;;;41.50;27.87;;;3.50;99.90;;;;;;5012496;28;20421;-77
2021/03/10 04:50:13;;;;;;;36.90;26.33;;;3.50;99.90;;;;;;5006573;28;20862;-77
2021/03/10 04:52:39;;;;;;;44.67;30.70;;;3.40;99.90;;;;;;5034339;28;20490;-78
2021/03/10 04:55:07;;;;;;;48.70;30.20;;;3.50;99.90;;;;;;5035359;28;20435;-77
2021/03/10 04:57:33;;;;;;;48.00;28.60;;;3.60;99.90;;;;;;5035772;28;20448;-77
2021/03/10 04:59:59;;;;;;;47.93;28.87;;;3.60;99.90;;;;;;5035277;28;20514;-78
2021/03/10 05:02:25;;;;;;;45.97;29.03;;;3.60;99.90;;;;;;5014546;28;20899;-77
2021/03/10 05:04:51;;;;;;;38.80;27.40;;;3.60;99.90;;;;;;5018246;28;21038;-77
2021/03/10 05:07:17;;;;;;;38.40;27.77;;;3.60;99.90;;;;;;5021556;28;20230;-77
2021/03/10 05:09:43;;;;;;;40.33;28.63;;;3.60;99.90;;;;;;5023571;28;20530;-77
2021/03/10 05:12:09;;;;;;;50.00;31.20;;;3.70;99.90;;;;;;5051971;28;20271;-77
2021/03/10 05:14:35;;;;;;;50.53;30.50;;;3.60;99.90;;;;;;5049609;28;20441;-77
2021/03/10 05:17:01;;;;;;;42.90;28.77;;;3.50;99.90;;;;;;5023125;28;20432;-77
2021/03/10 05:19:27;;;;;;;44.10;27.37;;;3.60;99.90;;;;;;5032941;28;20723;-77
2021/03/10 05:21:54;;;;;;;43.63;28.83;;;3.50;99.90;;;;;;5051632;28;20420;-77
2021/03/10 05:24:19;;;;;;;43.73;29.77;;;3.30;99.90;;;;;;5036577;28;20540;-77
2021/03/10 05:26:45;;;;;;;42.63;28.43;;;3.20;99.90;;;;;;5000123;28;20410;-77
2021/03/10 05:29:11;;;;;;;44.67;31.10;;;3.10;99.90;;;;;;5017982;28;20456;-77
2021/03/10 05:31:37;;;;;;;42.10;29.63;;;3.10;99.90;;;;;;5006289;28;20491;-77
2021/03/10 05:34:02;;;;;;;47.47;27.60;;;3.10;99.90;;;;;;5022126;28;21297;-77
2021/03/10 05:36:28;;;;;;;45.67;29.90;;;3.10;99.90;;;;;;5018407;28;20225;-77
2021/03/10 05:38:54;;;;;;;46.30;29.60;;;3.00;99.90;;;;;;5027964;28;20426;-77
2021/03/10 05:41:20;;;;;;;48.30;27.83;;;3.00;99.90;;;;;;5031683;28;20565;-75
2021/03/10 05:43:48;;;;;;;41.90;28.03;;;2.90;99.90;;;;;;5049493;28;20211;-76
2021/03/10 05:46:14;;;;;;;43.47;29.03;;;2.90;99.90;;;;;;5034499;28;20428;-77
2021/03/10 05:48:40;;;;;;;44.77;27.43;;;2.90;99.90;;;;;;5005206;28;21231;-76
2021/03/10 05:51:07;;;;;;;45.83;28.67;;;2.90;99.90;;;;;;5034669;28;20459;-75
2021/03/10 05:53:38;;;;;;;48.60;30.87;;;2.90;99.90;;;;;;5019903;28;20406;-76
2021/03/10 05:56:05;;;;;;;44.47;30.40;;;3.00;99.90;;;;;;5036500;28;23371;-76
2021/03/10 05:58:31;;;;;;;49.30;31.23;;;2.90;99.90;;;;;;5018665;28;21752;-76
2021/03/10 06:00:56;;;;;;;44.17;28.30;;;3.10;99.90;;;;;;5031823;28;20443;-76
2021/03/10 06:03:22;;;;;;;48.63;30.20;;;3.10;99.90;;;;;;5036266;28;20253;-76
2021/03/10 06:06:03;;;;;;;54.90;31.07;;;3.20;99.90;;;;;;5032843;28;20215;-77
2021/03/10 06:08:30;;;;;;;53.50;31.43;;;3.20;99.90;;;;;;5050541;28;20474;-78
2021/03/10 06:10:56;;;;;;;48.23;31.87;;;3.30;99.90;;;;;;5037466;28;20410;-77
2021/03/10 06:13:32;;;;;;;45.30;29.60;;;3.40;99.90;;;;;;5015430;28;20994;-77
2021/03/10 06:15:59;;;;;;;43.30;29.33;;;3.40;99.90;;;;;;5039050;28;20209;-77
2021/03/10 06:18:30;;;;;;;45.83;30.10;;;3.50;99.90;;;;;;5037530;28;20398;-77
2021/03/10 06:21:05;;;;;;;50.20;30.27;;;3.50;99.90;;;;;;5029109;28;20736;-77
2021/03/10 06:23:32;;;;;;;47.37;26.30;;;3.70;99.90;;;;;;5013761;28;20427;-76
2021/03/10 06:25:58;;;;;;;46.40;28.93;;;3.70;99.90;;;;;;5003030;28;20438;-77
2021/03/10 06:28:39;;;;;;;48.70;29.83;;;3.70;99.90;;;;;;5006909;28;20572;-75
2021/03/10 06:31:23;;;;;;;53.43;30.53;;;3.80;99.90;;;;;;5042756;28;20217;-75
2021/03/10 06:33:59;;;;;;;45.60;29.50;;;3.90;99.90;;;;;;5051008;28;21075;-75
2021/03/10 06:36:26;;;;;;;45.10;29.57;;;4.00;99.90;;;;;;5013631;28;20496;-75
2021/03/10 06:38:52;;;;;;;36.70;26.07;;;4.00;99.90;;;;;;5032619;28;20478;-76
2021/03/10 06:41:35;;;;;;;37.20;28.27;;;4.10;99.90;;;;;;5037543;28;20451;-77
2021/03/10 06:44:13;;;;;;;44.30;29.07;;;4.10;99.90;;;;;;5035862;28;20481;-76
2021/03/10 06:46:58;;;;;;;41.47;27.97;;;4.20;99.90;;;;;;5035407;28;20435;-76
2021/03/10 06:49:51;;;;;;;45.53;27.57;;;4.30;99.90;;;;;;5035964;28;20387;-76
2021/03/10 06:52:17;;;;;;;46.73;29.37;;;4.50;99.90;;;;;;5037282;28;20461;-76
2021/03/10 06:54:58;;;;;;;42.07;27.83;;;4.50;99.90;;;;;;5038914;28;20462;-78
2021/03/10 06:57:25;;;;;;;39.20;28.43;;;4.70;99.90;;;;;;5018460;28;20521;-77
2021/03/10 06:59:52;;;;;;;47.53;29.13;;;4.80;99.90;;;;;;5035904;28;20412;-77
2021/03/10 07:02:23;;;;;;;44.27;29.30;;;4.70;99.90;;;;;;5031838;28;20541;-77
2021/03/10 07:04:51;;;;;;;45.43;28.93;;;4.80;99.90;;;;;;5034878;28;21933;-77
2021/03/10 07:07:18;;;;;;;38.83;27.00;;;4.90;99.90;;;;;;5012642;28;20429;-77
2021/03/10 07:09:45;;;;;;;39.23;27.57;;;5.00;99.90;;;;;;5017661;28;20419;-77
2021/03/10 07:12:13;;;;;;;39.27;28.90;;;5.00;99.90;;;;;;5018861;28;20950;-77
2021/03/10 07:14:39;;;;;;;38.40;27.50;;;5.10;99.90;;;;;;5052679;28;20474;-77
2021/03/10 07:17:09;;;;;;;36.90;26.50;;;5.20;99.90;;;;;;5035590;28;20483;-76
2021/03/10 07:19:36;;;;;;;40.13;27.20;;;5.40;99.90;;;;;;5036515;28;20944;-77
2021/03/10 07:22:05;;;;;;;35.03;27.40;;;5.30;99.90;;;;;;5033655;28;21106;-76
2021/03/10 07:24:46;;;;;;;33.07;24.90;;;5.50;99.90;;;;;;5035068;28;20425;-77
2021/03/10 07:27:15;;;;;;;28.37;22.67;;;5.40;99.90;;;;;;5040964;28;20415;-77
2021/03/10 07:29:42;;;;;;;33.67;22.27;;;5.50;99.90;;;;;;5024404;28;20456;-76
2021/03/10 07:32:09;;;;;;;30.93;23.57;;;5.60;99.90;;;;;;5028360;28;20454;-78
2021/03/10 07:34:37;;;;;;;30.43;21.97;;;5.70;99.90;;;;;;5038609;28;21128;-77
2021/03/10 07:37:13;;;;;;;31.90;24.23;;;5.50;99.90;;;;;;5039829;28;20435;-77
2021/03/10 07:39:39;;;;;;;36.33;22.67;;;5.50;99.90;;;;;;5037800;28;20428;-77
2021/03/10 07:42:13;;;;;;;33.60;23.60;;;5.60;99.90;;;;;;5022974;28;20402;-78
2021/03/10 07:44:39;;;;;;;31.73;23.17;;;5.60;99.90;;;;;;5020058;28;20787;-78
2021/03/10 07:47:11;;;;;;;31.93;23.23;;;5.70;99.90;;;;;;5039313;28;20399;-78
2021/03/10 07:49:41;;;;;;;34.03;21.97;;;5.80;99.90;;;;;;5024040;28;20861;-77
2021/03/10 07:52:19;;;;;;;26.97;20.57;;;5.80;99.90;;;;;;5036242;28;20942;-77
2021/03/10 07:54:59;;;;;;;32.13;21.60;;;5.80;99.90;;;;;;5002206;28;20493;-78
2021/03/10 07:57:25;;;;;;;31.80;20.40;;;6.00;99.90;;;;;;5034756;28;20418;-77
2021/03/10 08:00:20;;;;;;;31.40;22.33;;;6.10;99.90;;;;;;5052137;28;20402;-77
2021/03/10 08:02:48;;;;;;;26.70;20.10;;;6.00;99.90;;;;;;5026173;28;20499;-77
2021/03/10 08:05:28;;;;;;;27.80;19.70;;;6.20;99.90;;;;;;5010465;28;20406;-77
2021/03/10 08:08:14;;;;;;;28.17;18.60;;;6.10;99.90;;;;;;5008259;28;20461;-77
2021/03/10 08:10:41;;;;;;;28.83;20.67;;;6.00;99.90;;;;;;5008068;28;20528;-77
2021/03/10 08:13:19;;;;;;;27.10;18.23;;;6.10;99.90;;;;;;5001433;28;20400;-77
2021/03/10 08:15:45;;;;;;;26.87;19.70;;;6.20;99.90;;;;;;5009913;28;20397;-76
2021/03/10 08:18:12;;;;;;;28.37;18.97;;;6.20;99.90;;;;;;5015724;28;20415;-76
2021/03/10 08:20:38;;;;;;;30.20;20.80;;;6.40;99.90;;;;;;5008810;28;20444;-76
2021/03/10 08:23:05;;;;;;;33.93;19.60;;;6.50;99.90;;;;;;5002959;28;20379;-77
2021/03/10 08:25:33;;;;;;;24.53;18.30;;;6.70;99.90;;;;;;5004860;28;20391;-76
2021/03/10 08:28:19;;;;;;;27.43;19.13;;;7.00;99.90;;;;;;5026572;28;20532;-77
2021/03/10 08:30:45;;;;;;;26.27;18.80;;;6.90;99.90;;;;;;5017040;28;20877;-77
2021/03/10 08:33:12;;;;;;;24.60;18.40;;;7.00;99.90;;;;;;5027554;28;20375;-76
2021/03/10 08:35:49;;;;;;;26.73;18.73;;;6.90;99.90;;;;;;4997917;28;20444;-76
2021/03/10 08:38:15;;;;;;;28.23;18.20;;;7.00;99.90;;;;;;5018640;28;20446;-75
2021/03/10 08:40:41;;;;;;;25.53;18.43;;;7.10;99.90;;;;;;5012533;28;20461;-76
2021/03/10 08:43:07;;;;;;;27.27;18.90;;;7.20;99.90;;;;;;5032797;28;20421;-77
2021/03/10 08:45:36;;;;;;;27.10;18.10;;;7.40;99.90;;;;;;5016651;28;20451;-77
2021/03/10 08:48:03;;;;;;;25.67;18.87;;;7.00;99.90;;;;;;5035280;28;20991;-77
2021/03/10 08:50:35;;;;;;;24.97;18.40;;;7.30;99.90;;;;;;5009606;28;20660;-77
2021/03/10 08:53:05;;;;;;;34.90;20.10;;;7.60;99.90;;;;;;5030572;28;20450;-77
2021/03/10 08:55:31;;;;;;;30.07;19.83;;;7.70;99.90;;;;;;5024168;28;20489;-76
2021/03/10 08:58:10;;;;;;;30.33;20.10;;;7.80;99.90;;;;;;4999766;28;21467;-77
2021/03/10 09:00:37;;;;;;;37.20;21.27;;;7.80;99.90;;;;;;5046153;28;20420;-76
2021/03/10 09:03:17;;;;;;;30.57;20.20;;;7.40;99.90;;;;;;5029195;28;20455;-76
2021/03/10 09:05:45;;;;;;;30.50;21.37;;;7.30;99.90;;;;;;5027176;28;20390;-76
2021/03/10 09:08:13;;;;;;;39.00;24.30;;;7.70;99.90;;;;;;5027873;28;20412;-78
2021/03/10 09:10:46;;;;;;;32.80;22.30;;;7.80;99.90;;;;;;5022153;28;20399;-77
2021/03/10 09:13:12;;;;;;;37.50;24.67;;;7.80;99.90;;;;;;5022166;28;20407;-77
2021/03/10 09:15:39;;;;;;;36.10;25.97;;;7.80;99.90;;;;;;5009343;28;20454;-77
2021/03/10 09:18:07;;;;;;;38.70;26.70;;;8.10;99.90;;;;;;5025911;28;20466;-77
2021/03/10 09:20:41;;;;;;;36.53;22.97;;;8.00;99.90;;;;;;5012042;28;20435;-77
2021/03/10 09:23:08;;;;;;;36.30;26.20;;;7.70;99.90;;;;;;5027309;28;20395;-78
2021/03/10 09:25:38;;;;;;;39.17;23.70;;;7.90;99.90;;;;;;5016959;28;20759;-77
2021/03/10 09:28:14;;;;;;;33.03;22.80;;;8.30;99.90;;;;;;5042293;28;21118;-77
2021/03/10 09:30:44;;;;;;;39.00;24.90;;;8.50;99.90;;;;;;5028409;28;20492;-77
2021/03/10 09:33:21;;;;;;;38.23;24.23;;;9.10;99.90;;;;;;5027307;28;20461;-78
2021/03/10 09:35:51;;;;;;;41.50;26.50;;;8.80;99.90;;;;;;5006734;28;20725;-77
2021/03/10 09:38:19;;;;;;;36.50;26.20;;;9.00;99.90;;;;;;5028925;28;20396;-77
2021/03/10 09:41:22;;;;;;;37.70;25.50;;;8.80;12.40;;;;;;5034281;28;20485;-77
2021/03/10 09:43:48;;;;;;;36.40;26.60;;;8.40;67.90;;;;;;5004671;28;20380;-76
2021/03/10 09:46:13;;;;;;;34.20;26.00;;;9.10;38.10;;;;;;5008751;28;20518;-77
2021/03/10 09:48:41;;;;;;;43.70;27.30;;;8.70;33.00;;;;;;4999251;28;20385;-77
2021/03/10 09:51:19;;;;;;;39.83;26.43;;;8.60;58.40;;;;;;5011538;28;20214;-77
2021/03/10 09:53:48;;;;;;;38.10;25.60;;;9.00;1.00;;;;;;5015154;28;20414;-77
2021/03/10 09:56:19;;;;;;;37.13;23.63;;;9.20;1.00;;;;;;5013445;28;20406;-77
2021/03/10 09:58:48;;;;;;;39.37;26.33;;;9.40;1.00;;;;;;5010711;28;20458;-77
2021/03/10 10:01:25;;;;;;;41.97;27.73;;;10.10;1.00;;;;;;5030972;28;21860;-77
2021/03/10 10:03:52;;;;;;;36.90;24.80;;;9.90;99.90;;;;;;5009063;28;20386;-77
2021/03/10 10:06:19;;;;;;;39.20;24.70;;;10.00;99.90;;;;;;5012743;28;20443;-78
2021/03/10 10:08:46;;;;;;;39.30;27.03;;;10.10;99.90;;;;;;4979153;28;20414;-77
2021/03/10 10:11:13;;;;;;;40.13;25.90;;;10.00;99.90;;;;;;5015287;28;21529;-78
2021/03/10 10:13:46;;;;;;;40.93;25.53;;;10.00;99.90;;;;;;5000600;28;20860;-77
2021/03/10 10:16:12;;;;;;;33.67;26.87;;;10.70;99.90;;;;;;5015009;28;20444;-77
2021/03/10 10:18:38;;;;;;;40.43;25.90;;;10.10;99.90;;;;;;5029096;28;20412;-77
2021/03/10 10:21:04;;;;;;;33.17;24.90;;;10.20;99.90;;;;;;5027731;28;20403;-78
2021/03/10 10:23:30;;;;;;;39.63;26.00;;;10.40;99.90;;;;;;5013811;28;20974;-77
2021/03/10 10:25:57;;;;;;;41.67;26.50;;;10.70;99.90;;;;;;5009853;28;20420;-77
2021/03/10 10:28:23;;;;;;;40.97;24.83;;;11.20;99.90;;;;;;5012792;28;20439;-77
2021/03/10 10:30:49;;;;;;;42.23;26.47;;;12.30;99.90;;;;;;5028506;28;20866;-78
2021/03/10 10:33:15;;;;;;;47.33;27.87;;;11.10;99.90;;;;;;5019556;28;20406;-78
2021/03/10 10:35:41;;;;;;;37.47;23.90;;;10.90;99.90;;;;;;5027969;28;20462;-77
2021/03/10 10:38:08;;;;;;;41.90;27.00;;;11.10;99.90;;;;;;5009262;28;20275;-76
2021/03/10 10:40:34;;;;;;;39.20;26.40;;;11.30;99.90;;;;;;5002217;28;20321;-77
2021/03/10 10:43:00;;;;;;;34.63;24.70;;;10.90;99.90;;;;;;5027644;28;20394;-77
2021/03/10 10:45:26;;;;;;;45.60;27.20;;;11.10;99.90;;;;;;5030930;28;21012;-77
2021/03/10 10:47:52;;;;;;;40.13;26.60;;;10.90;99.90;;;;;;5029010;28;20214;-77
2021/03/10 10:50:17;;;;;;;43.77;25.97;;;11.00;99.90;;;;;;5014475;28;20496;-78
2021/03/10 10:52:48;;;;;;;38.87;29.07;;;10.30;99.90;;;;;;5012219;28;21315;-77
2021/03/10 10:55:17;;;;;;;37.40;26.80;;;10.10;99.90;;;;;;5012180;28;20214;-77
2021/03/10 10:57:44;;;;;;;34.50;24.07;;;10.30;99.90;;;;;;5028178;28;20382;-77
2021/03/10 11:00:16;;;;;;;39.67;27.53;;;10.70;99.90;;;;;;5040693;28;20536;-77
2021/03/10 11:02:42;;;;;;;39.93;26.63;;;10.00;99.90;;;;;;5011099;28;20443;-77
2021/03/10 11:05:08;;;;;;;36.70;24.53;;;10.50;99.90;;;;;;5031438;28;23068;-77
2021/03/10 11:07:34;;;;;;;48.23;28.27;;;10.60;99.90;;;;;;5016221;28;20432;-77
2021/03/10 11:10:00;;;;;;;40.73;27.17;;;10.90;99.90;;;;;;5015616;28;20447;-77
2021/03/10 11:12:25;;;;;;;40.50;25.43;;;10.20;99.90;;;;;;5027668;28;20216;-77
2021/03/10 11:14:51;;;;;;;40.07;23.83;;;10.50;99.90;;;;;;5013904;28;20389;-77
2021/03/10 11:17:17;;;;;;;39.43;24.73;;;10.80;99.90;;;;;;5011795;28;20245;-78
2021/03/10 11:19:42;;;;;;;35.80;25.10;;;11.20;99.90;;;;;;4996132;28;20202;-77
2021/03/10 11:22:08;;;;;;;32.00;22.50;;;11.40;99.90;;;;;;5021895;28;20210;-77
2021/03/10 11:24:34;;;;;;;30.37;19.60;;;11.70;99.90;;;;;;5027818;28;20259;-77
2021/03/10 11:27:01;;;;;;;35.80;22.70;;;12.00;1.00;;;;;;5013718;28;20249;-77
2021/03/10 11:29:26;;;;;;;31.23;22.07;;;11.10;1.00;;;;;;5043860;28;20505;-78
2021/03/10 11:31:52;;;;;;;30.37;22.00;;;11.40;1.00;;;;;;5010582;28;20797;-77
2021/03/10 11:34:18;;;;;;;31.40;20.40;;;11.00;1.00;;;;;;5019904;28;20207;-78
2021/03/10 11:36:45;;;;;;;25.33;19.57;;;11.00;99.90;;;;;;5008488;28;20611;-77
2021/03/10 11:39:11;;;;;;;27.50;18.87;;;11.80;99.90;;;;;;5028985;28;20241;-78
2021/03/10 11:41:37;;;;;;;27.10;19.70;;;11.20;99.90;;;;;;5029797;28;20528;-78
2021/03/10 11:44:04;;;;;;;35.57;19.63;;;11.20;1.00;;;;;;5012334;28;20402;-79
2021/03/10 11:46:31;;;;;;;26.60;18.93;;;11.70;1.00;;;;;;5005914;28;20253;-77
2021/03/10 11:48:57;;;;;;;23.17;16.47;;;11.20;99.90;;;;;;5008253;28;21115;-76
2021/03/10 11:51:23;;;;;;;26.77;17.50;;;11.60;99.90;;;;;;5010258;28;20474;-78
2021/03/10 11:53:49;;;;;;;22.30;16.03;;;12.00;99.90;;;;;;5013030;28;21243;-77
2021/03/10 11:56:15;;;;;;;25.43;16.53;;;12.50;99.90;;;;;;5027563;28;21351;-78
2021/03/10 11:58:40;;;;;;;25.73;17.83;;;12.00;99.90;;;;;;5013410;28;20435;-77
2021/03/10 12:01:07;;;;;;;24.40;16.60;;;12.00;99.90;;;;;;5010692;28;20209;-77
2021/03/10 12:03:37;;;;;;;22.37;16.27;;;11.80;99.90;;;;;;5021661;28;20210;-78
2021/03/10 12:06:04;;;;;;;23.00;15.30;;;11.80;99.90;;;;;;5009296;28;20960;-79
2021/03/10 12:08:30;;;;;;;21.23;15.73;;;11.90;99.90;;;;;;5012081;28;20399;-78
2021/03/10 12:10:56;;;;;;;19.57;13.83;;;12.10;99.90;;;;;;5029234;28;20427;-78
2021/03/10 12:13:22;;;;;;;18.97;14.77;;;11.90;99.90;;;;;;5028235;28;20654;-76
2021/03/10 12:15:48;;;;;;;16.43;12.30;;;12.70;99.90;;;;;;5030772;28;20403;-77
2021/03/10 12:18:14;;;;;;;18.40;13.60;;;12.40;99.90;;;;;;5028702;28;20437;-77
2021/03/10 12:20:39;;;;;;;21.03;14.47;;;12.70;99.90;;;;;;5026226;28;20211;-77
2021/03/10 12:23:05;;;;;;;17.30;11.60;;;12.80;99.90;;;;;;5028112;28;20441;-77
2021/03/10 12:25:31;;;;;;;19.80;12.40;;;12.10;99.90;;;;;;5022424;28;20651;-78
2021/03/10 12:27:57;;;;;;;19.47;13.13;;;11.70;99.90;;;;;;5023464;28;20209;-77
2021/03/10 12:30:24;;;;;;;18.90;11.40;;;11.10;99.90;;;;;;5028686;28;20226;-77
2021/03/10 12:32:51;;;;;;;16.10;12.00;;;11.50;99.90;;;;;;5012766;28;20458;-78
2021/03/10 12:35:18;;;;;;;18.83;12.83;;;11.20;99.90;;;;;;5010713;28;20503;-78
2021/03/10 12:37:44;;;;;;;14.80;11.13;;;10.90;99.90;;;;;;5012298;28;21238;-77
2021/03/10 12:40:11;;;;;;;17.30;11.20;;;10.80;99.90;;;;;;5008350;28;20416;-77
2021/03/10 12:42:38;;;;;;;14.80;10.67;;;11.10;99.90;;;;;;5026447;28;20225;-77